EFPO

Pori Airport

Pori, Finland
METAR EFPO 192020Z AUTO VRB02KT CAVOK 02/01 Q1019
Observed Flight Rules
Oct-19 @ 20:20 UTC (28 minutes ago) Visual Flight Rules
Wind Visibility Clouds
Variable at 2 knots 10,000+ meters
  • Clear skies
Temperatures Readings
Current 2°C / 36°F
Dewpoint 1°C / 34°F
Humidity 93%
Altimeter 30.09" Hg
Pressure 1019 hPa
Elevation 17
METAR EFPO 192020Z AUTO VRB02KT CAVOK 02/01 Q1019
Observed Flight Rules
Oct-19 @ 20:20 UTC
(28 minutes ago)
VFR
Wind Visibility
Variable at 2 knots 10,000+ meters
Clouds
  • Clear skies
Temperature Dewpoint
2°C / 36°F 1°C / 34°F
Humidity Altimeter Pressure
93% 30.09" Hg 1019 hPa